sensor_id;sensor_type;location;lat;lon;timestamp;pressure;altitude;pressure_sealevel;temperature;humidity
6952;BME280;3515;50.138;8.502;2022-08-11T00:00:10;102310;;;22.4;43.0
6952;BME280;3515;50.138;8.502;2022-08-11T00:02:34;102290;;;22.3;43.0
6952;BME280;3515;50.138;8.502;2022-08-11T00:05:02;102280;;;22.2;43.0
6952;BME280;3515;50.138;8.502;2022-08-11T00:07:24;102300;;;22.1;43.4
6952;BME280;3515;50.138;8.502;2022-08-11T00:09:50;102290;;;22.1;43.4
6952;BME280;3515;50.138;8.502;2022-08-11T00:12:15;102290;;;22.0;43.9
6952;BME280;3515;50.138;8.502;2022-08-11T00:14:40;102300;;;22.0;43.4
6952;BME280;3515;50.138;8.502;2022-08-11T00:17:06;102300;;;22.0;43.9
6952;BME280;3515;50.138;8.502;2022-08-11T00:19:31;102310;;;21.9;43.9
6952;BME280;3515;50.138;8.502;2022-08-11T00:21:56;102290;;;21.9;43.9
6952;BME280;3515;50.138;8.502;2022-08-11T00:24:21;102270;;;21.8;43.9
6952;BME280;3515;50.138;8.502;2022-08-11T00:26:47;102300;;;21.7;44.4
6952;BME280;3515;50.138;8.502;2022-08-11T00:29:12;102300;;;21.6;43.9
6952;BME280;3515;50.138;8.502;2022-08-11T00:31:37;102280;;;21.7;43.9
6952;BME280;3515;50.138;8.502;2022-08-11T00:34:02;102280;;;21.7;43.9
6952;BME280;3515;50.138;8.502;2022-08-11T00:36:29;102300;;;21.6;43.9
6952;BME280;3515;50.138;8.502;2022-08-11T00:38:53;102290;;;21.8;43.9
6952;BME280;3515;50.138;8.502;2022-08-11T00:41:27;102300;;;21.8;44.4
6952;BME280;3515;50.138;8.502;2022-08-11T00:43:49;102290;;;21.7;44.4
6952;BME280;3515;50.138;8.502;2022-08-11T00:46:11;102280;;;21.6;44.4
6952;BME280;3515;50.138;8.502;2022-08-11T00:48:35;102290;;;21.6;44.4
6952;BME280;3515;50.138;8.502;2022-08-11T00:51:01;102310;;;21.5;44.4
6952;BME280;3515;50.138;8.502;2022-08-11T00:53:31;102290;;;21.5;44.9
6952;BME280;3515;50.138;8.502;2022-08-11T01:00:48;102290;;;21.3;44.9
6952;BME280;3515;50.138;8.502;2022-08-11T01:03:13;102290;;;21.4;44.9
6952;BME280;3515;50.138;8.502;2022-08-11T01:12:52;102270;;;21.1;45.9
6952;BME280;3515;50.138;8.502;2022-08-11T01:20:08;102290;;;21.0;46.4
6952;BME280;3515;50.138;8.502;2022-08-11T01:27:26;102290;;;20.9;46.4
6952;BME280;3515;50.138;8.502;2022-08-11T01:37:05;102300;;;20.8;46.4
6952;BME280;3515;50.138;8.502;2022-08-11T01:42:00;102300;;;20.9;46.4
6952;BME280;3515;50.138;8.502;2022-08-11T01:44:22;102330;;;20.8;47.0
6952;BME280;3515;50.138;8.502;2022-08-11T01:46:43;102300;;;20.6;47.4
6952;BME280;3515;50.138;8.502;2022-08-11T01:49:12;102300;;;20.5;47.4
6952;BME280;3515;50.138;8.502;2022-08-11T01:51:43;102290;;;20.5;47.4
6952;BME280;3515;50.138;8.502;2022-08-11T01:54:02;102290;;;20.5;47.4
6952;BME280;3515;50.138;8.502;2022-08-11T01:56:31;102330;;;20.4;47.4
6952;BME280;3515;50.138;8.502;2022-08-11T01:58:55;102290;;;20.4;47.4
6952;BME280;3515;50.138;8.502;2022-08-11T02:01:30;102300;;;20.4;47.4
6952;BME280;3515;50.138;8.502;2022-08-11T02:03:50;102290;;;20.2;47.4
6952;BME280;3515;50.138;8.502;2022-08-11T02:06:13;102300;;;20.1;47.4
6952;BME280;3515;50.138;8.502;2022-08-11T02:08:44;102310;;;20.1;47.9
6952;BME280;3515;50.138;8.502;2022-08-11T02:11:08;102300;;;20.0;47.8
6952;BME280;3515;50.138;8.502;2022-08-11T02:13:33;102310;;;20.0;48.5
6952;BME280;3515;50.138;8.502;2022-08-11T02:15:53;102310;;;19.9;48.5
6952;BME280;3515;50.138;8.502;2022-08-11T02:18:20;102320;;;19.8;49.0
6952;BME280;3515;50.138;8.502;2022-08-11T02:20:44;102310;;;19.7;48.5
6952;BME280;3515;50.138;8.502;2022-08-11T02:23:16;102290;;;19.8;49.0
6952;BME280;3515;50.138;8.502;2022-08-11T02:25:36;102320;;;19.8;49.5
6952;BME280;3515;50.138;8.502;2022-08-11T02:28:02;102310;;;19.6;49.0
6952;BME280;3515;50.138;8.502;2022-08-11T02:30:25;102290;;;19.8;49.0
6952;BME280;3515;50.138;8.502;2022-08-11T02:32:51;102330;;;19.8;49.0
6952;BME280;3515;50.138;8.502;2022-08-11T02:35:15;102300;;;19.8;49.0
6952;BME280;3515;50.138;8.502;2022-08-11T02:37:45;102320;;;19.6;49.5
6952;BME280;3515;50.138;8.502;2022-08-11T02:40:09;102310;;;19.6;49.5
6952;BME280;3515;50.138;8.502;2022-08-11T02:42:32;102310;;;19.5;50.0
6952;BME280;3515;50.138;8.502;2022-08-11T02:45:04;102300;;;19.5;50.0
6952;BME280;3515;50.138;8.502;2022-08-11T02:47:30;102300;;;19.4;50.0
6952;BME280;3515;50.138;8.502;2022-08-11T02:49:51;102280;;;19.4;50.5
6952;BME280;3515;50.138;8.502;2022-08-11T02:52:19;102280;;;19.2;50.5
6952;BME280;3515;50.138;8.502;2022-08-11T02:54:43;102290;;;19.2;51.0
6952;BME280;3515;50.138;8.502;2022-08-11T02:57:08;102310;;;19.1;51.0
6952;BME280;3515;50.138;8.502;2022-08-11T02:59:38;102290;;;19.0;51.0
6952;BME280;3515;50.138;8.502;2022-08-11T03:01:57;102290;;;19.0;51.0
6952;BME280;3515;50.138;8.502;2022-08-11T03:04:26;102310;;;19.0;51.0
6952;BME280;3515;50.138;8.502;2022-08-11T03:06:57;102270;;;18.9;52.0
6952;BME280;3515;50.138;8.502;2022-08-11T03:09:20;102310;;;18.9;51.4
6952;BME280;3515;50.138;8.502;2022-08-11T03:11:49;102270;;;18.8;52.0
6952;BME280;3515;50.138;8.502;2022-08-11T03:14:12;102300;;;18.7;52.0
6952;BME280;3515;50.138;8.502;2022-08-11T03:16:36;102290;;;18.6;52.5
6952;BME280;3515;50.138;8.502;2022-08-11T03:19:02;102300;;;18.6;53.0
6952;BME280;3515;50.138;8.502;2022-08-11T03:21:25;102270;;;18.6;53.5
6952;BME280;3515;50.138;8.502;2022-08-11T03:23:53;102310;;;18.5;53.5
6952;BME280;3515;50.138;8.502;2022-08-11T03:26:22;102280;;;18.5;53.5
6952;BME280;3515;50.138;8.502;2022-08-11T03:28:41;102290;;;18.4;53.5
6952;BME280;3515;50.138;8.502;2022-08-11T03:31:09;102300;;;18.5;53.5
6952;BME280;3515;50.138;8.502;2022-08-11T03:33:32;102290;;;18.5;53.5
6952;BME280;3515;50.138;8.502;2022-08-11T03:36:04;102290;;;18.4;53.5
6952;BME280;3515;50.138;8.502;2022-08-11T03:38:21;102300;;;18.4;53.5
6952;BME280;3515;50.138;8.502;2022-08-11T03:40:51;102280;;;18.4;54.0
6952;BME280;3515;50.138;8.502;2022-08-11T03:43:17;102280;;;18.4;54.0
6952;BME280;3515;50.138;8.502;2022-08-11T03:45:43;102300;;;18.3;54.0
6952;BME280;3515;50.138;8.502;2022-08-11T03:48:07;102270;;;18.2;54.0
6952;BME280;3515;50.138;8.502;2022-08-11T03:53:04;102300;;;18.2;54.0
6952;BME280;3515;50.138;8.502;2022-08-11T03:55:26;102300;;;18.2;54.0
6952;BME280;3515;50.138;8.502;2022-08-11T03:57:56;102300;;;18.1;54.0
6952;BME280;3515;50.138;8.502;2022-08-11T04:00:18;102280;;;18.1;54.5
6952;BME280;3515;50.138;8.502;2022-08-11T04:05:12;102310;;;17.9;55.0
6952;BME280;3515;50.138;8.502;2022-08-11T04:07:41;102310;;;17.9;55.5
6952;BME280;3515;50.138;8.502;2022-08-11T04:10:02;102280;;;17.9;55.0
6952;BME280;3515;50.138;8.502;2022-08-11T04:12:27;102310;;;17.9;55.0
6952;BME280;3515;50.138;8.502;2022-08-11T04:14:50;102300;;;17.9;56.0
6952;BME280;3515;50.138;8.502;2022-08-11T04:22:09;102320;;;17.8;55.5
6952;BME280;3515;50.138;8.502;2022-08-11T04:24:27;102320;;;17.8;56.0
6952;BME280;3515;50.138;8.502;2022-08-11T04:29:19;102320;;;17.7;57.0
6952;BME280;3515;50.138;8.502;2022-08-11T04:31:44;102300;;;17.6;56.5
6952;BME280;3515;50.138;8.502;2022-08-11T04:36:36;102290;;;17.8;57.0
6952;BME280;3515;50.138;8.502;2022-08-11T04:39:03;102310;;;17.8;57.0
6952;BME280;3515;50.138;8.502;2022-08-11T04:41:32;102300;;;17.7;57.5
6952;BME280;3515;50.138;8.502;2022-08-11T04:48:47;102320;;;17.7;57.0
6952;BME280;3515;50.138;8.502;2022-08-11T04:51:22;102310;;;17.8;57.5
6952;BME280;3515;50.138;8.502;2022-08-11T04:53:40;102290;;;17.8;57.5
6952;BME280;3515;50.138;8.502;2022-08-11T04:56:05;102310;;;17.9;57.5
6952;BME280;3515;50.138;8.502;2022-08-11T05:00:51;102310;;;17.9;56.5
6952;BME280;3515;50.138;8.502;2022-08-11T05:03:21;102300;;;17.9;56.5
6952;BME280;3515;50.138;8.502;2022-08-11T05:05:51;102300;;;18.0;56.5
6952;BME280;3515;50.138;8.502;2022-08-11T05:08:14;102310;;;18.1;56.0
6952;BME280;3515;50.138;8.502;2022-08-11T05:10:40;102300;;;18.1;56.0
6952;BME280;3515;50.138;8.502;2022-08-11T05:12:56;102320;;;18.2;56.0
6952;BME280;3515;50.138;8.502;2022-08-11T05:15:25;102310;;;18.4;55.5
6952;BME280;3515;50.138;8.502;2022-08-11T05:17:52;102280;;;18.5;55.0
6952;BME280;3515;50.138;8.502;2022-08-11T05:20:11;102300;;;18.9;53.5
6952;BME280;3515;50.138;8.502;2022-08-11T05:22:37;102310;;;19.2;53.0
6952;BME280;3515;50.138;8.502;2022-08-11T05:25:05;102320;;;19.6;52.0
6952;BME280;3515;50.138;8.502;2022-08-11T05:27:31;102310;;;19.8;52.0
6952;BME280;3515;50.138;8.502;2022-08-11T05:29:55;102300;;;20.0;51.5
6952;BME280;3515;50.138;8.502;2022-08-11T05:32:18;102320;;;20.1;51.0
6952;BME280;3515;50.138;8.502;2022-08-11T05:34:43;102330;;;20.4;50.5
6952;BME280;3515;50.138;8.502;2022-08-11T05:37:09;102300;;;20.5;50.0
6952;BME280;3515;50.138;8.502;2022-08-11T05:39:38;102340;;;20.6;50.5
6952;BME280;3515;50.138;8.502;2022-08-11T05:41:59;102350;;;20.6;50.0
6952;BME280;3515;50.138;8.502;2022-08-11T05:44:25;102330;;;20.9;49.5
6952;BME280;3515;50.138;8.502;2022-08-11T05:46:50;102340;;;20.9;50.0
6952;BME280;3515;50.138;8.502;2022-08-11T05:49:15;102320;;;21.1;49.5
6952;BME280;3515;50.138;8.502;2022-08-11T05:51:49;102350;;;21.2;49.0
6952;BME280;3515;50.138;8.502;2022-08-11T05:54:13;102340;;;21.3;49.0
6952;BME280;3515;50.138;8.502;2022-08-11T05:56:41;102330;;;21.4;48.5
6952;BME280;3515;50.138;8.502;2022-08-11T05:59:02;102350;;;21.6;48.0
6952;BME280;3515;50.138;8.502;2022-08-11T06:01:28;102320;;;21.9;47.0
6952;BME280;3515;50.138;8.502;2022-08-11T06:03:53;102330;;;22.1;47.0
6952;BME280;3515;50.138;8.502;2022-08-11T06:06:18;102340;;;22.2;47.0
6952;BME280;3515;50.138;8.502;2022-08-11T06:08:43;102320;;;22.4;46.0
6952;BME280;3515;50.138;8.502;2022-08-11T06:11:08;102310;;;22.5;46.0
6952;BME280;3515;50.138;8.502;2022-08-11T06:13:33;102320;;;22.6;46.0
6952;BME280;3515;50.138;8.502;2022-08-11T06:15:59;102330;;;22.8;45.5
6952;BME280;3515;50.138;8.502;2022-08-11T06:18:24;102310;;;22.9;46.0
6952;BME280;3515;50.138;8.502;2022-08-11T06:20:49;102340;;;22.9;45.0
6952;BME280;3515;50.138;8.502;2022-08-11T06:23:15;102330;;;23.1;44.5
6952;BME280;3515;50.138;8.502;2022-08-11T06:25:40;102320;;;23.1;44.5
6952;BME280;3515;50.138;8.502;2022-08-11T06:28:06;102300;;;23.2;44.5
6952;BME280;3515;50.138;8.502;2022-08-11T06:30:32;102310;;;23.4;44.5
6952;BME280;3515;50.138;8.502;2022-08-11T06:32:56;102340;;;23.4;44.5
6952;BME280;3515;50.138;8.502;2022-08-11T06:35:22;102320;;;23.5;44.5
6952;BME280;3515;50.138;8.502;2022-08-11T06:38:04;102330;;;23.8;44.5
6952;BME280;3515;50.138;8.502;2022-08-11T06:40:13;102320;;;23.8;43.5
6952;BME280;3515;50.138;8.502;2022-08-11T06:42:45;102350;;;23.9;43.5
6952;BME280;3515;50.138;8.502;2022-08-11T06:45:05;102340;;;23.9;43.5
6952;BME280;3515;50.138;8.502;2022-08-11T06:47:27;102340;;;24.0;43.0
6952;BME280;3515;50.138;8.502;2022-08-11T06:49:54;102350;;;24.0;43.5
6952;BME280;3515;50.138;8.502;2022-08-11T06:52:33;102340;;;24.0;43.0
6952;BME280;3515;50.138;8.502;2022-08-11T06:54:49;102320;;;24.2;42.6
6952;BME280;3515;50.138;8.502;2022-08-11T06:57:13;102330;;;24.2;42.9
6952;BME280;3515;50.138;8.502;2022-08-11T06:59:38;102340;;;24.1;42.5
6952;BME280;3515;50.138;8.502;2022-08-11T07:02:05;102330;;;24.1;42.5
6952;BME280;3515;50.138;8.502;2022-08-11T07:04:31;102340;;;24.2;42.5
6952;BME280;3515;50.138;8.502;2022-08-11T07:07:05;102340;;;24.4;42.5
6952;BME280;3515;50.138;8.502;2022-08-11T07:09:32;102330;;;24.4;41.9
6952;BME280;3515;50.138;8.502;2022-08-11T07:11:57;102320;;;24.5;42.5
6952;BME280;3515;50.138;8.502;2022-08-11T07:14:16;102330;;;24.5;42.5
6952;BME280;3515;50.138;8.502;2022-08-11T07:16:41;102330;;;24.5;42.5
6952;BME280;3515;50.138;8.502;2022-08-11T07:19:06;102320;;;24.6;42.0
6952;BME280;3515;50.138;8.502;2022-08-11T07:21:31;102330;;;24.6;41.5
6952;BME280;3515;50.138;8.502;2022-08-11T07:23:57;102330;;;24.6;41.5
6952;BME280;3515;50.138;8.502;2022-08-11T07:26:23;102340;;;24.7;41.5
6952;BME280;3515;50.138;8.502;2022-08-11T07:28:47;102340;;;24.7;41.5
6952;BME280;3515;50.138;8.502;2022-08-11T07:31:13;102340;;;24.9;40.5
6952;BME280;3515;50.138;8.502;2022-08-11T07:33:39;102330;;;24.9;41.0
6952;BME280;3515;50.138;8.502;2022-08-11T07:36:03;102330;;;24.9;41.0
6952;BME280;3515;50.138;8.502;2022-08-11T07:38:30;102340;;;24.9;41.0
6952;BME280;3515;50.138;8.502;2022-08-11T07:40:53;102320;;;25.0;41.0
6952;BME280;3515;50.138;8.502;2022-08-11T07:43:18;102330;;;25.1;41.0
6952;BME280;3515;50.138;8.502;2022-08-11T07:45:44;102320;;;25.1;40.5
6952;BME280;3515;50.138;8.502;2022-08-11T07:48:09;102330;;;25.1;41.0
6952;BME280;3515;50.138;8.502;2022-08-11T07:50:34;102340;;;25.0;41.0
6952;BME280;3515;50.138;8.502;2022-08-11T07:53:10;102320;;;25.0;41.0
6952;BME280;3515;50.138;8.502;2022-08-11T07:55:30;102320;;;24.9;41.0
6952;BME280;3515;50.138;8.502;2022-08-11T07:57:55;102340;;;25.1;41.0
6952;BME280;3515;50.138;8.502;2022-08-11T08:00:20;102320;;;25.1;40.5
6952;BME280;3515;50.138;8.502;2022-08-11T08:02:45;102320;;;25.2;40.5
6952;BME280;3515;50.138;8.502;2022-08-11T08:05:10;102310;;;25.1;41.0
6952;BME280;3515;50.138;8.502;2022-08-11T08:07:36;102330;;;25.1;41.0
6952;BME280;3515;50.138;8.502;2022-08-11T08:10:01;102310;;;25.2;40.5
6952;BME280;3515;50.138;8.502;2022-08-11T08:12:26;102350;;;25.5;41.0
6952;BME280;3515;50.138;8.502;2022-08-11T08:14:52;102310;;;25.6;40.5
6952;BME280;3515;50.138;8.502;2022-08-11T08:17:17;102330;;;25.6;40.5
6952;BME280;3515;50.138;8.502;2022-08-11T08:19:42;102340;;;25.6;40.5
6952;BME280;3515;50.138;8.502;2022-08-11T08:22:07;102330;;;25.6;40.5
6952;BME280;3515;50.138;8.502;2022-08-11T08:24:33;102340;;;25.6;40.5
6952;BME280;3515;50.138;8.502;2022-08-11T08:26:58;102340;;;25.6;41.0
6952;BME280;3515;50.138;8.502;2022-08-11T08:29:27;102320;;;25.6;40.5
6952;BME280;3515;50.138;8.502;2022-08-11T08:31:52;102310;;;25.6;40.5
6952;BME280;3515;50.138;8.502;2022-08-11T08:34:17;102320;;;25.6;40.5
6952;BME280;3515;50.138;8.502;2022-08-11T08:36:42;102350;;;25.7;40.5
6952;BME280;3515;50.138;8.502;2022-08-11T08:39:07;102330;;;25.9;40.5
6952;BME280;3515;50.138;8.502;2022-08-11T08:41:33;102330;;;26.1;39.9
6952;BME280;3515;50.138;8.502;2022-08-11T08:43:59;102360;;;25.9;40.9
6952;BME280;3515;50.138;8.502;2022-08-11T08:46:24;102310;;;26.0;39.9
6952;BME280;3515;50.138;8.502;2022-08-11T08:48:49;102310;;;26.1;40.5
6952;BME280;3515;50.138;8.502;2022-08-11T08:51:14;102330;;;26.2;39.9
6952;BME280;3515;50.138;8.502;2022-08-11T08:53:51;102350;;;26.4;39.9
6952;BME280;3515;50.138;8.502;2022-08-11T08:56:09;102340;;;26.5;39.9
6952;BME280;3515;50.138;8.502;2022-08-11T08:58:35;102310;;;26.5;40.0
6952;BME280;3515;50.138;8.502;2022-08-11T09:01:00;102320;;;26.5;39.9
6952;BME280;3515;50.138;8.502;2022-08-11T09:03:25;102300;;;26.1;40.5
6952;BME280;3515;50.138;8.502;2022-08-11T09:05:52;102330;;;26.5;39.9
6952;BME280;3515;50.138;8.502;2022-08-11T09:08:16;102310;;;26.6;39.9
6952;BME280;3515;50.138;8.502;2022-08-11T09:10:41;102320;;;26.5;39.9
6952;BME280;3515;50.138;8.502;2022-08-11T09:13:06;102330;;;26.6;40.5
6952;BME280;3515;50.138;8.502;2022-08-11T09:15:32;102300;;;26.7;39.9
6952;BME280;3515;50.138;8.502;2022-08-11T09:17:58;102310;;;27.1;39.3
6952;BME280;3515;50.138;8.502;2022-08-11T09:20:23;102300;;;27.2;38.9
6952;BME280;3515;50.138;8.502;2022-08-11T09:22:48;102320;;;27.2;39.4
6952;BME280;3515;50.138;8.502;2022-08-11T09:25:13;102310;;;27.1;39.4
6952;BME280;3515;50.138;8.502;2022-08-11T09:27:38;102300;;;27.2;38.4
6952;BME280;3515;50.138;8.502;2022-08-11T09:30:04;102310;;;27.2;38.4
6952;BME280;3515;50.138;8.502;2022-08-11T09:32:28;102300;;;27.2;38.4
6952;BME280;3515;50.138;8.502;2022-08-11T09:34:54;102310;;;27.2;38.4
6952;BME280;3515;50.138;8.502;2022-08-11T09:37:19;102300;;;27.5;37.4
6952;BME280;3515;50.138;8.502;2022-08-11T09:39:44;102310;;;27.6;37.9
6952;BME280;3515;50.138;8.502;2022-08-11T09:42:10;102300;;;27.5;37.9
6952;BME280;3515;50.138;8.502;2022-08-11T09:44:35;102270;;;27.5;37.4
6952;BME280;3515;50.138;8.502;2022-08-11T09:47:00;102300;;;27.6;37.4
6952;BME280;3515;50.138;8.502;2022-08-11T09:49:25;102310;;;27.7;37.4
6952;BME280;3515;50.138;8.502;2022-08-11T09:51:51;102300;;;27.6;37.4
6952;BME280;3515;50.138;8.502;2022-08-11T09:54:29;102290;;;27.5;37.9
6952;BME280;3515;50.138;8.502;2022-08-11T09:56:46;102290;;;27.6;36.9
6952;BME280;3515;50.138;8.502;2022-08-11T09:59:11;102310;;;27.6;36.9
6952;BME280;3515;50.138;8.502;2022-08-11T10:01:39;102310;;;27.8;36.9
6952;BME280;3515;50.138;8.502;2022-08-11T10:04:02;102290;;;27.8;36.9
6952;BME280;3515;50.138;8.502;2022-08-11T10:06:28;102290;;;28.0;36.4
6952;BME280;3515;50.138;8.502;2022-08-11T10:08:52;102260;;;28.1;37.0
6952;BME280;3515;50.138;8.502;2022-08-11T10:11:20;102270;;;28.0;36.0
6952;BME280;3515;50.138;8.502;2022-08-11T10:13:43;102290;;;27.9;36.5
6952;BME280;3515;50.138;8.502;2022-08-11T10:16:08;102300;;;28.1;36.0
6952;BME280;3515;50.138;8.502;2022-08-11T10:18:34;102280;;;28.6;34.9
6952;BME280;3515;50.138;8.502;2022-08-11T10:20:59;102290;;;28.6;35.5
6952;BME280;3515;50.138;8.502;2022-08-11T10:23:25;102280;;;28.5;34.9
6952;BME280;3515;50.138;8.502;2022-08-11T10:25:49;102280;;;28.1;35.5
6952;BME280;3515;50.138;8.502;2022-08-11T10:28:17;102260;;;28.4;35.5
6952;BME280;3515;50.138;8.502;2022-08-11T10:30:44;102280;;;28.6;34.9
6952;BME280;3515;50.138;8.502;2022-08-11T10:33:11;102280;;;28.1;35.5
6952;BME280;3515;50.138;8.502;2022-08-11T10:35:35;102260;;;27.8;36.0
6952;BME280;3515;50.138;8.502;2022-08-11T10:38:00;102250;;;28.0;35.5
6952;BME280;3515;50.138;8.502;2022-08-11T10:40:25;102260;;;28.0;36.0
6952;BME280;3515;50.138;8.502;2022-08-11T10:42:52;102260;;;28.1;35.5
6952;BME280;3515;50.138;8.502;2022-08-11T10:45:16;102270;;;28.0;35.5
6952;BME280;3515;50.138;8.502;2022-08-11T10:47:41;102260;;;28.2;35.0
6952;BME280;3515;50.138;8.502;2022-08-11T10:50:07;102230;;;28.4;34.9
6952;BME280;3515;50.138;8.502;2022-08-11T10:52:32;102240;;;28.8;33.4
6952;BME280;3515;50.138;8.502;2022-08-11T10:55:09;102250;;;28.8;34.5
6952;BME280;3515;50.138;8.502;2022-08-11T10:57:27;102250;;;28.6;34.5
6952;BME280;3515;50.138;8.502;2022-08-11T10:59:52;102220;;;28.8;33.9
6952;BME280;3515;50.138;8.502;2022-08-11T11:02:18;102240;;;28.9;33.5
6952;BME280;3515;50.138;8.502;2022-08-11T11:04:51;102220;;;28.6;33.9
6952;BME280;3515;50.138;8.502;2022-08-11T11:07:09;102250;;;28.5;33.5
6952;BME280;3515;50.138;8.502;2022-08-11T11:09:43;102210;;;28.6;34.0
6952;BME280;3515;50.138;8.502;2022-08-11T11:11:59;102240;;;28.7;33.5
6952;BME280;3515;50.138;8.502;2022-08-11T11:14:30;102250;;;28.9;33.5
6952;BME280;3515;50.138;8.502;2022-08-11T11:16:54;102210;;;28.9;33.5
6952;BME280;3515;50.138;8.502;2022-08-11T11:19:21;102210;;;28.9;33.5
6952;BME280;3515;50.138;8.502;2022-08-11T11:21:45;102200;;;29.0;33.5
6952;BME280;3515;50.138;8.502;2022-08-11T11:24:12;102210;;;29.1;32.9
6952;BME280;3515;50.138;8.502;2022-08-11T11:26:38;102200;;;29.1;33.5
6952;BME280;3515;50.138;8.502;2022-08-11T11:29:06;102220;;;29.2;32.9
6952;BME280;3515;50.138;8.502;2022-08-11T11:31:31;102220;;;29.2;32.9
6952;BME280;3515;50.138;8.502;2022-08-11T11:34:00;102200;;;29.1;32.9
6952;BME280;3515;50.138;8.502;2022-08-11T11:36:17;102210;;;29.2;32.9
6952;BME280;3515;50.138;8.502;2022-08-11T11:38:42;102190;;;29.5;32.9
6952;BME280;3515;50.138;8.502;2022-08-11T11:41:07;102180;;;29.4;32.9
6952;BME280;3515;50.138;8.502;2022-08-11T11:43:32;102180;;;29.2;32.5
6952;BME280;3515;50.138;8.502;2022-08-11T11:45:58;102190;;;29.3;33.5
6952;BME280;3515;50.138;8.502;2022-08-11T11:48:23;102160;;;29.1;33.5
6952;BME280;3515;50.138;8.502;2022-08-11T11:50:48;102150;;;29.1;32.5
6952;BME280;3515;50.138;8.502;2022-08-11T11:53:13;102150;;;29.5;32.5
6952;BME280;3515;50.138;8.502;2022-08-11T11:55:48;102170;;;29.8;31.9
6952;BME280;3515;50.138;8.502;2022-08-11T11:58:07;102160;;;29.7;32.5
6952;BME280;3515;50.138;8.502;2022-08-11T12:00:32;102160;;;29.9;32.0
6952;BME280;3515;50.138;8.502;2022-08-11T12:02:58;102150;;;29.9;31.5
6952;BME280;3515;50.138;8.502;2022-08-11T12:05:23;102160;;;30.0;31.5
6952;BME280;3515;50.138;8.502;2022-08-11T12:07:48;102150;;;29.9;31.5
6952;BME280;3515;50.138;8.502;2022-08-11T12:10:13;102140;;;29.8;31.5
6952;BME280;3515;50.138;8.502;2022-08-11T12:12:38;102140;;;30.0;31.5
6952;BME280;3515;50.138;8.502;2022-08-11T12:15:05;102160;;;30.0;31.5
6952;BME280;3515;50.138;8.502;2022-08-11T12:17:29;102150;;;29.9;31.5
6952;BME280;3515;50.138;8.502;2022-08-11T12:19:54;102150;;;30.0;30.9
6952;BME280;3515;50.138;8.502;2022-08-11T12:22:19;102140;;;30.1;30.9
6952;BME280;3515;50.138;8.502;2022-08-11T12:24:45;102140;;;30.1;30.9
6952;BME280;3515;50.138;8.502;2022-08-11T12:27:10;102120;;;30.0;31.5
6952;BME280;3515;50.138;8.502;2022-08-11T12:29:35;102130;;;30.1;30.5
6952;BME280;3515;50.138;8.502;2022-08-11T12:32:00;102130;;;30.3;29.9
6952;BME280;3515;50.138;8.502;2022-08-11T12:34:26;102120;;;30.0;30.5
6952;BME280;3515;50.138;8.502;2022-08-11T12:36:52;102140;;;30.1;30.5
6952;BME280;3515;50.138;8.502;2022-08-11T12:39:18;102130;;;30.3;30.5
6952;BME280;3515;50.138;8.502;2022-08-11T12:41:41;102120;;;30.5;29.9
6952;BME280;3515;50.138;8.502;2022-08-11T12:44:07;102110;;;30.6;29.5
6952;BME280;3515;50.138;8.502;2022-08-11T12:46:32;102120;;;30.5;29.9
6952;BME280;3515;50.138;8.502;2022-08-11T12:48:58;102120;;;30.4;29.9
6952;BME280;3515;50.138;8.502;2022-08-11T12:51:23;102130;;;30.6;29.5
6952;BME280;3515;50.138;8.502;2022-08-11T12:53:52;102090;;;30.4;29.5
6952;BME280;3515;50.138;8.502;2022-08-11T12:56:13;102090;;;30.5;29.5
6952;BME280;3515;50.138;8.502;2022-08-11T12:58:39;102100;;;30.9;28.4
6952;BME280;3515;50.138;8.502;2022-08-11T13:01:03;102100;;;31.0;28.9
6952;BME280;3515;50.138;8.502;2022-08-11T13:03:29;102100;;;31.1;28.9
6952;BME280;3515;50.138;8.502;2022-08-11T13:05:55;102110;;;31.0;28.5
6952;BME280;3515;50.138;8.502;2022-08-11T13:10:47;102110;;;31.1;27.9
6952;BME280;3515;50.138;8.502;2022-08-11T13:13:12;102100;;;31.1;27.9
6952;BME280;3515;50.138;8.502;2022-08-11T13:15:37;102090;;;31.0;28.0
6952;BME280;3515;50.138;8.502;2022-08-11T13:18:03;102100;;;31.2;27.5
6952;BME280;3515;50.138;8.502;2022-08-11T13:20:28;102080;;;31.2;27.9
6952;BME280;3515;50.138;8.502;2022-08-11T13:22:54;102090;;;31.1;27.5
6952;BME280;3515;50.138;8.502;2022-08-11T13:25:19;102090;;;31.1;27.5
6952;BME280;3515;50.138;8.502;2022-08-11T13:27:44;102090;;;31.1;27.5
6952;BME280;3515;50.138;8.502;2022-08-11T13:30:09;102040;;;31.5;27.5
6952;BME280;3515;50.138;8.502;2022-08-11T13:32:34;102080;;;31.4;27.5
6952;BME280;3515;50.138;8.502;2022-08-11T13:34:59;102050;;;31.6;26.9
6952;BME280;3515;50.138;8.502;2022-08-11T13:37:25;102060;;;31.4;27.5
6952;BME280;3515;50.138;8.502;2022-08-11T13:39:50;102050;;;31.1;27.5
6952;BME280;3515;50.138;8.502;2022-08-11T13:42:18;102060;;;31.1;27.5
6952;BME280;3515;50.138;8.502;2022-08-11T13:44:40;102060;;;31.2;27.5
6952;BME280;3515;50.138;8.502;2022-08-11T13:47:06;102060;;;31.4;27.5
6952;BME280;3515;50.138;8.502;2022-08-11T13:49:32;102050;;;31.6;27.5
6952;BME280;3515;50.138;8.502;2022-08-11T13:52:00;102060;;;31.6;27.5
6952;BME280;3515;50.138;8.502;2022-08-11T13:54:26;102040;;;31.7;27.5
6952;BME280;3515;50.138;8.502;2022-08-11T13:56:52;102040;;;31.6;27.5
6952;BME280;3515;50.138;8.502;2022-08-11T13:59:17;102050;;;31.7;27.5
6952;BME280;3515;50.138;8.502;2022-08-11T14:01:43;102040;;;31.5;27.5
6952;BME280;3515;50.138;8.502;2022-08-11T14:04:07;102040;;;31.4;27.5
6952;BME280;3515;50.138;8.502;2022-08-11T14:06:32;102030;;;31.4;27.5
6952;BME280;3515;50.138;8.502;2022-08-11T14:08:57;102020;;;31.4;27.5
6952;BME280;3515;50.138;8.502;2022-08-11T14:11:23;102030;;;31.6;27.0
6952;BME280;3515;50.138;8.502;2022-08-11T14:13:48;102020;;;31.6;26.5
6952;BME280;3515;50.138;8.502;2022-08-11T14:16:15;102030;;;31.6;27.5
6952;BME280;3515;50.138;8.502;2022-08-11T14:18:39;102010;;;31.9;26.5
6952;BME280;3515;50.138;8.502;2022-08-11T14:21:04;102000;;;31.8;27.1
6952;BME280;3515;50.138;8.502;2022-08-11T14:23:30;102020;;;31.5;27.0
6952;BME280;3515;50.138;8.502;2022-08-11T14:25:54;102000;;;31.5;27.0
6952;BME280;3515;50.138;8.502;2022-08-11T14:28:19;102020;;;31.6;27.0
6952;BME280;3515;50.138;8.502;2022-08-11T14:30:45;102020;;;31.5;27.5
6952;BME280;3515;50.138;8.502;2022-08-11T14:33:10;102030;;;31.4;27.5
6952;BME280;3515;50.138;8.502;2022-08-11T14:35:35;102000;;;31.3;27.0
6952;BME280;3515;50.138;8.502;2022-08-11T14:38:00;102030;;;31.4;27.0
6952;BME280;3515;50.138;8.502;2022-08-11T14:40:26;102010;;;31.5;27.0
6952;BME280;3515;50.138;8.502;2022-08-11T14:42:51;101980;;;31.6;27.0
6952;BME280;3515;50.138;8.502;2022-08-11T14:45:17;101970;;;31.5;27.0
6952;BME280;3515;50.138;8.502;2022-08-11T14:47:43;101980;;;31.7;27.2
6952;BME280;3515;50.138;8.502;2022-08-11T14:50:10;101990;;;31.8;27.0
6952;BME280;3515;50.138;8.502;2022-08-11T14:52:33;101990;;;31.9;27.0